Ivano-Frankivs'K, Ukraine
Current Conditions -  °F | °C
As of 7:00 PM on Monday 24 Nov 2014 (Local Time) from UKLI Reporting Station
Broken Clouds Broken Clouds  
Wind Chill: 24°   Ceiling: 2000
Heat Index: 30°   Visibility: 6mi
Dew Point: 28°   Wind: 7mph
Humidity: 93%   Direction: 100°E
Pressure: 30.42"   Gusts: NA
Location:  48.97°N, 24.4°E
Report Text: UKLI 241600Z 10003MPS 9999 BKN020 M01/M02 Q1030 NOSIG
Loading
Personal Weather Stations






























Interactive Weather Map New forecast layout! Learn more

10-Day Weather Forecast

Advertisements
Track Severe Weather on mobile